createdAt,value
2022-09-07T00:00:46.420Z,3.53
2022-09-07T00:03:14.435Z,3.85
2022-09-07T00:05:43.661Z,3.85
2022-09-07T00:08:13.365Z,3.63
2022-09-07T00:10:41.321Z,4.10
2022-09-07T00:13:10.416Z,4.20
2022-09-07T00:15:41.067Z,3.78
2022-09-07T00:18:09.211Z,3.20
2022-09-07T00:20:37.133Z,3.50
2022-09-07T00:23:05.064Z,3.50
2022-09-07T00:25:38.632Z,3.42
2022-09-07T00:28:07.325Z,3.47
2022-09-07T00:30:35.841Z,3.28
2022-09-07T00:33:03.728Z,4.22
2022-09-07T00:35:31.632Z,3.47
2022-09-07T00:37:59.509Z,3.70
2022-09-07T00:40:27.540Z,3.88
2022-09-07T00:42:56.761Z,4.07
2022-09-07T00:45:24.882Z,3.63
2022-09-07T00:47:57.225Z,3.78
2022-09-07T00:50:28.024Z,3.80
2022-09-07T00:53:00.444Z,3.55
2022-09-07T00:55:30.618Z,3.63
2022-09-07T00:58:01.091Z,3.00
2022-09-07T01:00:29.183Z,3.90
2022-09-07T01:02:58.847Z,3.55
2022-09-07T01:05:32.068Z,3.92
2022-09-07T01:08:00.385Z,3.80
2022-09-07T01:10:31.819Z,3.60
2022-09-07T01:13:01.415Z,3.78
2022-09-07T01:15:41.589Z,3.55
2022-09-07T01:18:16.803Z,3.60
2022-09-07T01:20:56.571Z,3.67
2022-09-07T01:23:53.320Z,4.00
2022-09-07T01:27:02.735Z,3.60
2022-09-07T01:29:41.952Z,3.80
2022-09-07T01:32:14.733Z,3.90
2022-09-07T01:34:44.601Z,3.75
2022-09-07T01:37:20.694Z,3.53
2022-09-07T01:40:07.719Z,3.63
2022-09-07T01:42:42.297Z,3.35
2022-09-07T01:45:14.962Z,3.90
2022-09-07T01:47:46.782Z,3.67
2022-09-07T01:50:20.784Z,3.88
2022-09-07T01:52:54.228Z,3.90
2022-09-07T01:57:57.403Z,4.18
2022-09-07T02:00:26.935Z,3.80
2022-09-07T02:03:00.321Z,3.70
2022-09-07T02:08:03.358Z,4.00
2022-09-07T02:10:37.730Z,3.72
2022-09-07T02:13:11.477Z,4.07
2022-09-07T02:15:46.216Z,3.85
2022-09-07T02:18:15.141Z,4.15
2022-09-07T02:20:48.343Z,4.18
2022-09-07T02:23:21.151Z,4.30
2022-09-07T02:25:55.174Z,3.70
2022-09-07T02:28:27.355Z,3.17
2022-09-07T02:30:56.763Z,3.67
2022-09-07T02:33:24.975Z,3.42
2022-09-07T02:35:53.288Z,3.80
2022-09-07T02:38:21.676Z,3.67
2022-09-07T02:40:52.776Z,3.83
2022-09-07T02:43:22.739Z,3.95
2022-09-07T02:46:09.483Z,3.38
2022-09-07T02:48:51.288Z,3.72
2022-09-07T02:51:29.807Z,3.80
2022-09-07T02:54:19.204Z,3.22
2022-09-07T02:56:59.625Z,3.03
2022-09-07T02:59:43.116Z,3.15
2022-09-07T03:02:20.647Z,3.50
2022-09-07T03:04:56.016Z,2.92
2022-09-07T03:07:28.798Z,3.00
2022-09-07T03:09:59.693Z,3.13
2022-09-07T03:12:40.619Z,3.25
2022-09-07T03:15:11.490Z,2.70
2022-09-07T03:17:41.597Z,3.08
2022-09-07T03:20:10.562Z,2.90
2022-09-07T03:22:38.787Z,3.00
2022-09-07T03:25:07.968Z,3.20
2022-09-07T03:27:36.067Z,2.72
2022-09-07T03:30:05.264Z,3.53
2022-09-07T03:32:35.251Z,3.03
2022-09-07T03:35:06.193Z,3.00
2022-09-07T03:37:36.404Z,2.92
2022-09-07T03:40:05.302Z,3.05
2022-09-07T03:42:33.260Z,2.90
2022-09-07T03:45:01.195Z,2.78
2022-09-07T03:47:29.241Z,2.75
2022-09-07T03:49:57.149Z,3.00
2022-09-07T03:52:26.487Z,2.60
2022-09-07T03:54:54.372Z,2.60
2022-09-07T03:57:22.357Z,2.42
2022-09-07T03:59:50.826Z,2.42
2022-09-07T04:02:18.817Z,2.95
2022-09-07T04:04:47.045Z,2.60
2022-09-07T04:07:15.532Z,2.90
2022-09-07T04:09:44.763Z,2.80
2022-09-07T04:12:12.650Z,2.70
2022-09-07T04:14:40.553Z,2.60
2022-09-07T04:17:08.505Z,2.70
2022-09-07T04:19:36.465Z,2.55
2022-09-07T04:22:04.395Z,2.17
2022-09-07T04:24:32.257Z,2.55
2022-09-07T04:27:02.070Z,2.50
2022-09-07T04:29:30.005Z,2.67
2022-09-07T04:31:57.909Z,2.75
2022-09-07T04:34:25.812Z,2.33
2022-09-07T04:36:53.664Z,2.30
2022-09-07T04:39:21.539Z,2.90
2022-09-07T04:41:49.476Z,3.15
2022-09-07T04:44:18.675Z,2.40
2022-09-07T04:46:46.515Z,3.25
2022-09-07T04:49:14.689Z,2.75
2022-09-07T04:51:44.287Z,2.90
2022-09-07T04:54:12.415Z,2.90
2022-09-07T04:56:40.359Z,3.00
2022-09-07T04:59:08.384Z,2.80
2022-09-07T05:01:37.744Z,2.63
2022-09-07T05:04:06.463Z,2.85
2022-09-07T05:06:34.364Z,2.92
2022-09-07T05:09:02.597Z,2.95
2022-09-07T05:11:30.798Z,2.60
2022-09-07T05:13:58.962Z,2.60
2022-09-07T05:16:27.350Z,2.70
2022-09-07T05:18:59.167Z,2.55
2022-09-07T05:21:29.083Z,2.85
2022-09-07T05:23:58.869Z,2.88
2022-09-07T05:26:28.747Z,2.60
2022-09-07T05:31:44.963Z,2.80
2022-09-07T05:34:31.042Z,2.40
2022-09-07T05:36:59.718Z,2.35
2022-09-07T05:39:28.137Z,2.72
2022-09-07T05:41:56.256Z,2.22
2022-09-07T05:47:12.602Z,2.25
2022-09-07T05:49:41.862Z,2.53
2022-09-07T05:52:09.786Z,2.40
2022-09-07T05:54:37.707Z,2.03
2022-09-07T05:57:07.112Z,1.90
2022-09-07T05:59:36.057Z,2.35
2022-09-07T06:02:04.052Z,1.95
2022-09-07T06:04:32.129Z,2.00
2022-09-07T06:12:37.214Z,1.80
2022-09-07T06:15:05.956Z,1.85
2022-09-07T06:17:33.954Z,2.05
2022-09-07T06:20:01.927Z,1.90
2022-09-07T06:22:31.589Z,1.83
2022-09-07T06:24:59.836Z,1.70
2022-09-07T06:27:28.034Z,1.83
2022-09-07T06:29:56.193Z,2.30
2022-09-07T06:35:12.408Z,2.35
2022-09-07T06:37:42.293Z,1.80
2022-09-07T06:40:11.476Z,1.80
2022-09-07T06:42:39.615Z,2.10
2022-09-07T06:45:11.078Z,1.70
2022-09-07T06:47:39.159Z,2.17
2022-09-07T06:50:07.871Z,2.00
2022-09-07T06:55:27.616Z,1.98
2022-09-07T06:57:55.624Z,1.95
2022-09-07T07:00:23.498Z,1.73
2022-09-07T07:02:51.495Z,2.00
2022-09-07T07:05:19.438Z,2.10
2022-09-07T07:07:47.293Z,2.10
2022-09-07T07:10:15.434Z,2.30
2022-09-07T07:15:11.854Z,2.28
2022-09-07T07:17:39.853Z,2.00
2022-09-07T07:20:08.784Z,2.03
2022-09-07T07:22:46.591Z,1.65
2022-09-07T07:25:16.014Z,1.80
2022-09-07T07:27:45.689Z,1.67
2022-09-07T07:30:14.489Z,1.92
2022-09-07T07:32:42.998Z,2.15
2022-09-07T07:35:11.741Z,1.70
2022-09-07T07:37:40.194Z,1.90
2022-09-07T07:48:00.206Z,1.58
2022-09-07T07:50:31.921Z,1.60
2022-09-07T07:55:48.763Z,1.88
2022-09-07T07:58:16.705Z,1.63
2022-09-07T08:01:01.237Z,2.05
2022-09-07T08:03:29.675Z,1.63
2022-09-07T08:05:57.730Z,1.80
2022-09-07T08:08:25.673Z,1.70
2022-09-07T08:10:53.725Z,1.58
2022-09-07T08:13:22.256Z,1.48
2022-09-07T08:15:51.762Z,1.58
2022-09-07T08:18:19.977Z,1.40
2022-09-07T08:20:48.353Z,1.80
2022-09-07T08:23:16.185Z,1.75
2022-09-07T08:25:51.945Z,1.95
2022-09-07T08:28:20.175Z,1.73
2022-09-07T08:30:48.070Z,1.60
2022-09-07T08:33:17.900Z,1.40
2022-09-07T08:35:56.237Z,1.70
2022-09-07T08:38:24.433Z,1.77
2022-09-07T08:40:52.989Z,1.77
2022-09-07T08:43:36.686Z,1.65
2022-09-07T08:46:13.412Z,2.28
2022-09-07T08:48:43.730Z,1.38
2022-09-07T08:51:22.361Z,1.60
2022-09-07T08:53:52.685Z,2.00
2022-09-07T08:56:28.161Z,2.20
2022-09-07T08:59:02.299Z,2.42
2022-09-07T09:01:33.992Z,2.03
2022-09-07T09:04:20.567Z,2.72
2022-09-07T09:06:59.353Z,2.60
2022-09-07T09:09:39.642Z,2.25
2022-09-07T09:12:19.314Z,2.58
2022-09-07T09:14:58.431Z,2.40
2022-09-07T09:17:31.443Z,2.58
2022-09-07T09:20:11.103Z,2.33
2022-09-07T09:22:39.554Z,2.22
2022-09-07T09:25:18.755Z,2.60
2022-09-07T09:27:46.887Z,2.10
2022-09-07T09:30:16.989Z,2.22
2022-09-07T09:32:46.579Z,2.15
2022-09-07T09:35:19.565Z,2.25
2022-09-07T09:37:47.746Z,1.90
2022-09-07T09:40:26.035Z,2.38
2022-09-07T09:43:03.079Z,2.03
2022-09-07T09:46:12.069Z,1.88
2022-09-07T09:48:33.551Z,1.83
2022-09-07T09:53:58.131Z,1.80
2022-09-07T09:56:45.086Z,1.48
2022-09-07T10:05:26.957Z,1.27
2022-09-07T10:07:56.791Z,1.20
2022-09-07T10:10:26.230Z,1.17
2022-09-07T10:12:55.881Z,1.33
2022-09-07T10:15:32.849Z,1.25
2022-09-07T10:18:05.863Z,1.45
2022-09-07T10:20:36.627Z,1.73
2022-09-07T10:23:06.983Z,1.60
2022-09-07T10:25:37.297Z,1.30
2022-09-07T10:28:17.342Z,1.50
2022-09-07T10:30:59.771Z,1.50
2022-09-07T10:33:35.363Z,1.37
2022-09-07T10:36:10.993Z,1.40
2022-09-07T10:38:46.221Z,1.60
2022-09-07T10:41:15.664Z,1.52
2022-09-07T10:43:45.954Z,1.50
2022-09-07T10:49:24.688Z,1.63
2022-09-07T10:52:05.253Z,1.65
2022-09-07T10:54:45.814Z,1.85
2022-09-07T10:57:36.560Z,1.88
2022-09-07T11:00:11.371Z,1.83
2022-09-07T11:06:02.629Z,1.85
2022-09-07T11:14:25.314Z,1.88
2022-09-07T11:16:59.532Z,1.85
2022-09-07T11:19:35.634Z,1.90
2022-09-07T11:22:14.276Z,1.80
2022-09-07T11:25:29.101Z,1.77
2022-09-07T11:27:43.482Z,1.73
2022-09-07T11:30:20.692Z,1.70
2022-09-07T11:32:55.546Z,1.80
2022-09-07T11:35:48.988Z,1.60
2022-09-07T11:41:02.819Z,1.73
2022-09-07T11:43:37.747Z,1.63
2022-09-07T11:46:11.188Z,1.75
2022-09-07T11:48:43.676Z,1.85
2022-09-07T11:51:18.422Z,1.88
2022-09-07T11:53:49.886Z,2.05
2022-09-07T11:56:25.301Z,2.17
2022-09-07T11:59:22.942Z,1.90
2022-09-07T12:02:05.460Z,2.25
2022-09-07T12:04:56.375Z,2.08
2022-09-07T12:07:45.599Z,1.95
2022-09-07T12:10:34.006Z,2.10
2022-09-07T12:13:18.559Z,1.75
2022-09-07T12:15:55.692Z,1.98
2022-09-07T12:18:36.809Z,1.98
2022-09-07T12:21:04.845Z,2.22
2022-09-07T12:23:33.283Z,1.67
2022-09-07T12:26:38.215Z,1.77
2022-09-07T12:29:20.645Z,1.70
2022-09-07T12:32:07.295Z,2.03
2022-09-07T12:35:00.660Z,1.80
2022-09-07T12:37:38.985Z,1.77
2022-09-07T12:40:45.294Z,1.70
2022-09-07T12:43:34.283Z,1.60
2022-09-07T12:46:02.756Z,1.60
2022-09-07T12:48:49.346Z,1.75
2022-09-07T12:54:26.012Z,2.20
2022-09-07T13:02:40.047Z,1.85
2022-09-07T13:05:20.848Z,1.80
2022-09-07T13:08:14.604Z,1.55
2022-09-07T13:10:44.191Z,2.00
2022-09-07T13:14:01.912Z,1.70
2022-09-07T13:16:31.866Z,1.50
2022-09-07T13:19:02.039Z,1.60
2022-09-07T13:21:41.206Z,1.85
2022-09-07T13:24:47.174Z,1.58
2022-09-07T13:27:44.157Z,1.60
2022-09-07T13:30:45.386Z,1.63
2022-09-07T13:33:46.008Z,2.00
2022-09-07T13:36:37.604Z,1.60
2022-09-07T13:39:13.138Z,1.85
2022-09-07T13:41:47.145Z,1.70
2022-09-07T13:44:25.877Z,1.80
2022-09-07T13:47:39.348Z,1.90
2022-09-07T13:50:20.472Z,1.70
2022-09-07T13:53:07.126Z,1.80
2022-09-07T13:55:43.989Z,1.77
2022-09-07T13:58:17.746Z,1.70
2022-09-07T14:00:54.470Z,1.58
2022-09-07T14:03:23.414Z,2.08
2022-09-07T14:06:13.564Z,1.60
2022-09-07T14:08:42.254Z,1.67
2022-09-07T14:11:20.284Z,1.40
2022-09-07T14:14:06.489Z,1.60
2022-09-07T14:16:34.672Z,1.90
2022-09-07T14:19:03.603Z,1.80
2022-09-07T14:21:32.230Z,1.73
2022-09-07T14:24:03.330Z,1.58
2022-09-07T14:26:32.839Z,1.70
2022-09-07T14:29:01.465Z,1.95
2022-09-07T14:31:30.561Z,1.98
2022-09-07T14:34:00.227Z,1.90
2022-09-07T14:36:47.982Z,1.77
2022-09-07T14:39:18.161Z,1.90
2022-09-07T14:41:48.076Z,1.83
2022-09-07T14:44:30.073Z,1.70
2022-09-07T14:46:59.529Z,1.83
2022-09-07T14:49:28.897Z,1.73
2022-09-07T14:51:57.192Z,1.73
2022-09-07T14:54:28.550Z,1.33
2022-09-07T14:57:03.103Z,1.60
2022-09-07T14:59:44.087Z,1.60
2022-09-07T15:02:35.193Z,1.45
2022-09-07T15:05:23.474Z,1.80
2022-09-07T15:07:54.470Z,1.70
2022-09-07T15:10:36.882Z,1.95
2022-09-07T15:13:23.036Z,1.67
2022-09-07T15:15:59.027Z,1.90
2022-09-07T15:18:54.540Z,1.77
2022-09-07T15:21:27.214Z,1.30
2022-09-07T15:23:58.465Z,1.33
2022-09-07T15:29:20.659Z,1.45
2022-09-07T15:32:01.070Z,1.15
2022-09-07T15:34:31.311Z,1.30
2022-09-07T15:37:00.302Z,1.60
2022-09-07T15:39:30.239Z,1.10
2022-09-07T15:42:00.655Z,1.50
2022-09-07T15:44:50.005Z,1.67
2022-09-07T15:50:07.423Z,1.20
2022-09-07T15:52:35.244Z,1.52
2022-09-07T15:55:03.293Z,1.10
2022-09-07T15:57:48.714Z,1.50
2022-09-07T16:00:19.683Z,1.50
2022-09-07T16:05:36.807Z,1.77
2022-09-07T16:10:53.909Z,1.38
2022-09-07T16:13:23.889Z,1.35
2022-09-07T16:15:53.244Z,1.27
2022-09-07T16:18:21.266Z,1.23
2022-09-07T16:20:52.552Z,1.15
2022-09-07T16:23:20.741Z,1.50
2022-09-07T16:26:00.233Z,1.35
2022-09-07T16:28:29.810Z,1.38
2022-09-07T16:30:59.257Z,1.67
2022-09-07T16:33:36.022Z,1.90
2022-09-07T16:36:07.146Z,2.08
2022-09-07T16:38:50.898Z,1.98
2022-09-07T16:41:20.891Z,2.20
2022-09-07T16:43:48.889Z,2.10
2022-09-07T16:46:20.100Z,2.00
2022-09-07T16:48:48.626Z,2.13
2022-09-07T16:51:19.637Z,2.40
2022-09-07T16:53:48.850Z,2.20
2022-09-07T16:56:18.673Z,2.38
2022-09-07T16:58:48.296Z,2.47
2022-09-07T17:01:19.999Z,2.38
2022-09-07T17:03:49.516Z,2.55
2022-09-07T17:06:18.858Z,2.25
2022-09-07T17:08:47.038Z,2.08
2022-09-07T17:11:17.264Z,2.15
2022-09-07T17:13:46.620Z,2.05
2022-09-07T17:16:16.197Z,2.30
2022-09-07T17:21:36.419Z,2.10
2022-09-07T17:24:06.333Z,2.33
2022-09-07T17:26:34.782Z,2.15
2022-09-07T17:29:02.748Z,2.35
2022-09-07T17:34:22.127Z,2.50
2022-09-07T17:36:51.288Z,2.10
2022-09-07T17:39:19.880Z,2.55
2022-09-07T17:41:49.500Z,2.15
2022-09-07T17:44:17.453Z,2.45
2022-09-07T17:46:45.484Z,2.55
2022-09-07T17:49:16.098Z,2.40
2022-09-07T17:51:46.402Z,2.20
2022-09-07T17:54:17.363Z,2.47
2022-09-07T17:56:45.666Z,2.53
2022-09-07T18:02:01.857Z,2.35
2022-09-07T18:04:30.038Z,2.88
2022-09-07T18:06:59.330Z,3.00
2022-09-07T18:09:27.181Z,2.55
2022-09-07T18:11:55.075Z,2.53
2022-09-07T18:14:23.187Z,2.72
2022-09-07T18:16:51.495Z,2.80
2022-09-07T18:19:20.003Z,3.00
2022-09-07T18:21:48.689Z,2.92
2022-09-07T18:24:21.248Z,2.75
2022-09-07T18:26:51.740Z,2.80
2022-09-07T18:29:36.817Z,2.80
2022-09-07T18:32:09.507Z,3.17
2022-09-07T18:34:38.023Z,2.90
2022-09-07T18:37:07.184Z,3.08
2022-09-07T18:39:37.475Z,2.60
2022-09-07T18:42:06.185Z,3.05
2022-09-07T18:47:27.868Z,2.78
2022-09-07T18:49:57.516Z,3.00
2022-09-07T18:55:16.312Z,3.20
2022-09-07T18:57:44.910Z,3.28
2022-09-07T19:00:14.122Z,3.03
2022-09-07T19:02:42.128Z,2.90
2022-09-07T19:07:59.385Z,3.30
2022-09-07T19:10:28.697Z,3.00
2022-09-07T19:12:56.940Z,2.90
2022-09-07T19:15:24.756Z,3.28
2022-09-07T19:17:52.677Z,3.28
2022-09-07T19:20:20.525Z,3.17
2022-09-07T19:22:48.736Z,3.60
2022-09-07T19:25:17.377Z,3.25
2022-09-07T19:27:46.761Z,3.10
2022-09-07T19:30:15.461Z,3.13
2022-09-07T19:32:43.470Z,3.70
2022-09-07T19:35:11.366Z,3.30
2022-09-07T19:37:39.223Z,3.40
2022-09-07T19:40:15.847Z,3.45
2022-09-07T19:42:48.029Z,3.40
2022-09-07T19:45:16.050Z,3.35
2022-09-07T19:47:43.929Z,3.28
2022-09-07T19:50:11.841Z,3.45
2022-09-07T19:52:39.826Z,3.33
2022-09-07T19:55:08.869Z,3.50
2022-09-07T19:57:36.741Z,3.28
2022-09-07T20:00:07.621Z,3.08
2022-09-07T20:02:39.682Z,3.55
2022-09-07T20:05:08.074Z,3.50
2022-09-07T20:07:36.064Z,3.42
2022-09-07T20:10:04.172Z,3.03
2022-09-07T20:12:32.050Z,3.28
2022-09-07T20:14:59.949Z,3.35
2022-09-07T20:17:34.453Z,3.40
2022-09-07T20:20:03.684Z,3.72
2022-09-07T20:22:31.854Z,3.40
2022-09-07T20:25:10.218Z,3.78
2022-09-07T20:27:45.645Z,3.53
2022-09-07T20:30:13.923Z,3.47
2022-09-07T20:32:43.110Z,3.28
2022-09-07T20:35:11.239Z,3.65
2022-09-07T20:37:39.164Z,3.13
2022-09-07T20:40:08.271Z,3.72
2022-09-07T20:42:36.219Z,3.20
2022-09-07T20:45:04.457Z,3.80
2022-09-07T20:47:32.299Z,3.58
2022-09-07T20:50:01.568Z,3.28
2022-09-07T20:52:29.433Z,3.88
2022-09-07T20:54:57.270Z,3.80
2022-09-07T20:57:25.144Z,4.10
2022-09-07T20:59:53.159Z,3.65
2022-09-07T21:02:21.110Z,3.55
2022-09-07T21:04:49.073Z,3.50
2022-09-07T21:07:18.605Z,3.70
2022-09-07T21:09:46.476Z,4.05
2022-09-07T21:12:14.389Z,3.80
2022-09-07T21:14:42.244Z,3.88
2022-09-07T21:17:10.072Z,3.28
2022-09-07T21:19:37.978Z,3.97
2022-09-07T21:22:05.905Z,3.80
2022-09-07T21:24:35.100Z,3.50
2022-09-07T21:27:02.976Z,4.18
2022-09-07T21:29:30.822Z,3.80
2022-09-07T21:31:58.733Z,3.60
2022-09-07T21:34:26.655Z,3.67
2022-09-07T21:36:54.553Z,3.40
2022-09-07T21:39:22.781Z,3.40
2022-09-07T21:41:51.990Z,3.45
2022-09-07T21:44:20.359Z,3.35
2022-09-07T21:46:48.619Z,4.00
2022-09-07T21:49:16.783Z,3.50
2022-09-07T21:51:44.672Z,3.45
2022-09-07T21:54:12.575Z,3.05
2022-09-07T21:56:45.875Z,3.38
2022-09-07T21:59:15.917Z,3.58
2022-09-07T22:01:43.784Z,3.58
2022-09-07T22:04:12.053Z,3.83
2022-09-07T22:06:41.001Z,3.85
2022-09-07T22:09:08.902Z,4.18
2022-09-07T22:11:36.854Z,3.97
2022-09-07T22:14:06.810Z,3.75
2022-09-07T22:16:36.391Z,3.47
2022-09-07T22:19:04.985Z,3.10
2022-09-07T22:21:33.124Z,3.78
2022-09-07T22:24:02.593Z,3.33
2022-09-07T22:26:32.157Z,3.80
2022-09-07T22:29:00.408Z,3.65
2022-09-07T22:31:29.997Z,3.60
2022-09-07T22:34:00.449Z,3.22
2022-09-07T22:36:31.217Z,3.05
2022-09-07T22:39:01.145Z,3.72
2022-09-07T22:41:31.659Z,4.10
2022-09-07T22:43:59.862Z,4.03
2022-09-07T22:46:30.608Z,4.60
2022-09-07T22:49:00.385Z,3.95
2022-09-07T22:51:28.654Z,3.72
2022-09-07T22:53:57.118Z,4.32
2022-09-07T22:56:27.468Z,3.75
2022-09-07T22:58:57.318Z,4.18
2022-09-07T23:01:26.028Z,3.75
2022-09-07T23:03:54.093Z,3.40
2022-09-07T23:06:25.561Z,3.45
2022-09-07T23:08:54.899Z,3.50
2022-09-07T23:11:24.173Z,3.20
2022-09-07T23:13:53.048Z,3.72
2022-09-07T23:16:21.442Z,3.28
2022-09-07T23:18:49.940Z,3.20
2022-09-07T23:21:18.057Z,3.75
2022-09-07T23:23:52.375Z,3.35
2022-09-07T23:26:20.676Z,3.45
2022-09-07T23:28:52.213Z,3.50
2022-09-07T23:31:20.245Z,3.38
2022-09-07T23:33:48.144Z,3.20
2022-09-07T23:36:17.266Z,3.25
2022-09-07T23:38:45.274Z,3.15
2022-09-07T23:41:14.969Z,3.25
2022-09-07T23:43:44.011Z,3.13
2022-09-07T23:46:12.618Z,2.58
2022-09-07T23:48:40.487Z,3.00
2022-09-07T23:51:08.389Z,2.97
2022-09-07T23:53:36.284Z,2.67
2022-09-07T23:56:04.697Z,2.58
2022-09-07T23:58:33.925Z,2.53
